Time;durP1;ratioP1;P1;durP2;ratioP2;P2;SDS_P1;SDS_P2;PMS_P1;PMS_P2;Temp;Humidity;BMP_temperature;BMP_pressure;BME280_temperature;BME280_humidity;BME280_pressure;Samples;Min_cycle;Max_cycle;Signal;HPM_P1;HPM_P2
2023/06/14 00:00:46;;;;;;;2.30;2.20;;;13.20;79.60;;;;;;4989781;28;20535;-49
2023/06/14 00:03:17;;;;;;;2.93;2.63;;;13.10;76.50;;;;;;4991042;28;20539;-49
2023/06/14 00:05:44;;;;;;;7.73;2.20;;;13.10;70.30;;;;;;4984586;28;20471;-49
2023/06/14 00:08:11;;;;;;;2.93;2.60;;;13.00;67.20;;;;;;4991072;28;20465;-49
2023/06/14 00:10:41;;;;;;;6.50;2.07;;;13.00;55.30;;;;;;4991941;28;20528;-49
2023/06/14 00:13:08;;;;;;;2.33;2.20;;;12.90;45.20;;;;;;4989256;28;20465;-49
2023/06/14 00:15:35;;;;;;;4.33;2.73;;;12.80;31.80;;;;;;4991123;28;20539;-49
2023/06/14 00:18:02;;;;;;;2.00;1.90;;;12.80;36.30;;;;;;4990156;28;20540;-49
2023/06/14 00:20:30;;;;;;;2.70;2.27;;;12.80;31.40;;;;;;4988862;28;20793;-48
2023/06/14 00:22:57;;;;;;;2.30;2.20;;;12.80;36.80;;;;;;4989749;28;20564;-48
2023/06/14 00:25:25;;;;;;;3.20;2.07;;;12.70;25.70;;;;;;4996651;28;20465;-48
2023/06/14 00:27:53;;;;;;;2.23;2.00;;;12.70;88.20;;;;;;4990322;28;21021;-50
2023/06/14 00:30:20;;;;;;;4.73;2.27;;;12.60;99.90;;;;;;4990112;28;20543;-49
2023/06/14 00:32:46;;;;;;;2.60;2.13;;;12.50;99.90;;;;;;4989331;28;20547;-49
2023/06/14 00:35:13;;;;;;;2.50;2.30;;;12.60;99.90;;;;;;4996923;28;20556;-48
2023/06/14 00:37:40;;;;;;;4.73;2.60;;;12.50;99.90;;;;;;4989442;28;20559;-50
2023/06/14 00:40:07;;;;;;;11.63;2.23;;;12.40;99.90;;;;;;4991517;28;20579;-49
2023/06/14 00:42:34;;;;;;;2.20;2.10;;;12.40;99.90;;;;;;4991197;28;20559;-49
2023/06/14 00:45:02;;;;;;;3.23;2.17;;;12.30;99.90;;;;;;4997485;28;20554;-48
2023/06/14 00:47:28;;;;;;;2.80;2.30;;;12.30;99.90;;;;;;4989312;28;20916;-49
2023/06/14 00:49:56;;;;;;;3.20;2.40;;;12.30;99.90;;;;;;4992220;28;20535;-49
2023/06/14 00:52:24;;;;;;;2.50;2.40;;;12.40;99.90;;;;;;4995167;28;20820;-49
2023/06/14 00:54:50;;;;;;;2.40;2.27;;;12.30;99.90;;;;;;5000864;28;20464;-49
2023/06/14 00:57:17;;;;;;;8.73;2.50;;;12.20;99.90;;;;;;4991116;28;20925;-49
2023/06/14 00:59:46;;;;;;;6.13;2.27;;;12.20;99.90;;;;;;4997060;28;20907;-48
2023/06/14 01:02:15;;;;;;;3.20;2.57;;;12.20;99.90;;;;;;4997624;28;20551;-49
2023/06/14 01:04:45;;;;;;;3.07;2.27;;;12.10;99.90;;;;;;4997992;28;20872;-49
2023/06/14 01:07:16;;;;;;;4.03;2.60;;;12.00;99.90;;;;;;4993654;28;20476;-49
2023/06/14 01:09:53;;;;;;;5.53;2.60;;;12.00;99.90;;;;;;4994721;28;20461;-49
2023/06/14 01:12:25;;;;;;;3.20;3.00;;;12.00;99.90;;;;;;4993662;28;20519;-50
2023/06/14 01:14:54;;;;;;;4.90;3.07;;;12.00;99.90;;;;;;4994278;28;20550;-49
2023/06/14 01:17:23;;;;;;;3.80;2.10;;;11.90;99.90;;;;;;5052624;22;20509;-54
2023/06/14 01:19:57;;;;;;;5.47;3.07;;;11.80;99.90;;;;;;5033281;28;20933;-52
2023/06/14 01:22:25;;;;;;;6.73;2.57;;;11.80;99.90;;;;;;5026747;28;20464;-52
2023/06/14 01:24:55;;;;;;;8.50;2.67;;;11.80;99.90;;;;;;5032983;28;20467;-53
2023/06/14 01:27:23;;;;;;;4.60;2.80;;;11.90;99.90;;;;;;5029278;28;20533;-54
2023/06/14 01:29:50;;;;;;;2.77;2.57;;;11.90;99.90;;;;;;5028446;28;20459;-52
2023/06/14 01:32:18;;;;;;;2.93;2.70;;;11.80;99.90;;;;;;5023161;28;20459;-53
2023/06/14 01:34:45;;;;;;;4.10;3.17;;;11.80;99.90;;;;;;5028008;28;20459;-53
2023/06/14 01:37:13;;;;;;;6.60;2.80;;;11.90;99.90;;;;;;5028462;28;20596;-53
2023/06/14 01:39:40;;;;;;;4.80;2.40;;;11.80;99.90;;;;;;5028767;28;20573;-53
2023/06/14 01:42:08;;;;;;;3.13;2.40;;;11.80;99.90;;;;;;5031547;28;20573;-53
2023/06/14 01:44:35;;;;;;;2.90;2.70;;;11.60;99.90;;;;;;5031506;28;20529;-54
2023/06/14 01:47:02;;;;;;;3.27;2.80;;;11.50;99.90;;;;;;5032636;28;20518;-53
2023/06/14 01:49:29;;;;;;;2.90;2.70;;;11.40;99.90;;;;;;5028276;28;20463;-52
2023/06/14 01:51:55;;;;;;;3.93;2.90;;;11.40;99.90;;;;;;5029410;28;20505;-52
2023/06/14 01:54:22;;;;;;;6.57;2.90;;;11.40;99.90;;;;;;5030518;28;20498;-52
2023/06/14 01:56:49;;;;;;;4.63;2.87;;;11.40;99.90;;;;;;5027493;28;20490;-53
2023/06/14 01:59:17;;;;;;;3.60;3.30;;;11.40;99.90;;;;;;5027545;28;20522;-54
2023/06/14 02:01:44;;;;;;;2.90;2.70;;;11.40;99.90;;;;;;5030490;28;20490;-53
2023/06/14 02:04:10;;;;;;;4.97;2.93;;;11.30;99.90;;;;;;5032744;28;20959;-52
2023/06/14 02:06:37;;;;;;;3.13;2.93;;;11.40;99.90;;;;;;5031585;28;20516;-53
2023/06/14 02:09:03;;;;;;;5.20;2.83;;;11.40;99.90;;;;;;5029125;28;20501;-54
2023/06/14 02:11:30;;;;;;;3.00;2.70;;;11.40;99.90;;;;;;5029271;28;20812;-53
2023/06/14 02:13:59;;;;;;;5.73;3.57;;;11.40;99.90;;;;;;5032901;28;20454;-53
2023/06/14 02:16:29;;;;;;;3.40;3.10;;;11.40;99.90;;;;;;5030699;28;20490;-54
2023/06/14 02:18:56;;;;;;;5.60;3.10;;;11.40;99.90;;;;;;5032523;28;20447;-52
2023/06/14 02:21:23;;;;;;;4.43;3.10;;;11.40;99.90;;;;;;5033382;28;20565;-54
2023/06/14 02:23:50;;;;;;;4.27;3.47;;;11.30;99.90;;;;;;5032670;28;20501;-54
2023/06/14 02:26:16;;;;;;;5.87;3.10;;;11.30;99.90;;;;;;5027811;28;20489;-53
2023/06/14 02:28:43;;;;;;;4.97;3.33;;;11.20;99.90;;;;;;5030472;28;20494;-53
2023/06/14 02:31:09;;;;;;;8.23;3.40;;;11.10;99.90;;;;;;5032137;28;20483;-53
2023/06/14 02:33:37;;;;;;;6.13;3.27;;;11.10;99.90;;;;;;5033091;28;20976;-57
2023/06/14 02:36:04;;;;;;;5.27;3.20;;;11.10;99.90;;;;;;5030872;28;20483;-57
2023/06/14 02:38:31;;;;;;;5.97;3.00;;;11.10;99.90;;;;;;5032655;28;20494;-57
2023/06/14 02:40:59;;;;;;;5.23;3.13;;;11.20;99.90;;;;;;5036532;28;20514;-57
2023/06/14 02:43:25;;;;;;;5.33;3.40;;;11.10;99.90;;;;;;5030979;28;20455;-57
2023/06/14 02:45:52;;;;;;;6.93;3.07;;;11.10;99.90;;;;;;5037922;28;20494;-57
2023/06/14 02:48:18;;;;;;;8.73;3.50;;;11.20;99.90;;;;;;5039575;28;20459;-57
2023/06/14 02:50:46;;;;;;;4.90;3.53;;;11.20;99.90;;;;;;5039977;28;20880;-57
2023/06/14 02:53:13;;;;;;;3.63;3.20;;;11.10;99.90;;;;;;5034396;28;20460;-58
2023/06/14 02:55:40;;;;;;;4.97;3.50;;;11.10;99.90;;;;;;5027992;28;20513;-57
2023/06/14 02:58:06;;;;;;;4.13;3.40;;;11.10;99.90;;;;;;5029597;28;20451;-57
2023/06/14 03:00:35;;;;;;;4.77;3.67;;;11.10;99.90;;;;;;5029367;28;20569;-57
2023/06/14 03:03:02;;;;;;;3.70;3.40;;;11.10;99.90;;;;;;5030765;28;20463;-57
2023/06/14 03:05:28;;;;;;;5.67;3.40;;;11.10;99.90;;;;;;5027774;28;20477;-57
2023/06/14 03:07:56;;;;;;;6.80;3.70;;;11.00;99.90;;;;;;5029344;28;20569;-57
2023/06/14 03:10:23;;;;;;;4.10;3.70;;;11.00;99.90;;;;;;5026829;28;20547;-57
2023/06/14 03:12:51;;;;;;;4.70;3.40;;;11.00;99.90;;;;;;5026432;28;20565;-58
2023/06/14 03:15:19;;;;;;;5.73;3.77;;;11.00;99.90;;;;;;5030381;28;20959;-57
2023/06/14 03:17:45;;;;;;;6.87;3.83;;;11.00;99.90;;;;;;5023973;28;20501;-57
2023/06/14 03:20:12;;;;;;;6.87;3.20;;;11.00;99.90;;;;;;5031602;28;20487;-58
2023/06/14 03:22:39;;;;;;;5.80;3.80;;;11.10;99.90;;;;;;5030429;28;20546;-57
2023/06/14 03:25:09;;;;;;;6.43;3.80;;;11.10;99.90;;;;;;5029513;28;20474;-57
2023/06/14 03:27:36;;;;;;;5.53;3.90;;;11.10;99.90;;;;;;5028198;28;20556;-57
2023/06/14 03:30:03;;;;;;;4.40;4.00;;;11.00;99.90;;;;;;5030296;28;20455;-53
2023/06/14 03:32:33;;;;;;;3.90;3.50;;;11.10;99.90;;;;;;5028601;28;20454;-57
2023/06/14 03:34:59;;;;;;;3.30;3.10;;;11.10;99.90;;;;;;5023963;28;20460;-57
2023/06/14 03:37:26;;;;;;;4.00;3.70;;;11.10;99.90;;;;;;5030710;28;20507;-57
2023/06/14 03:39:52;;;;;;;3.70;3.40;;;11.10;99.90;;;;;;5029794;28;20534;-57
2023/06/14 03:42:20;;;;;;;4.47;4.07;;;11.10;99.90;;;;;;5026702;28;20506;-57
2023/06/14 03:44:47;;;;;;;6.57;4.23;;;11.10;99.90;;;;;;5028582;28;20915;-56
2023/06/14 03:47:13;;;;;;;4.30;4.00;;;11.10;99.90;;;;;;5029905;28;20483;-56
2023/06/14 03:49:40;;;;;;;10.10;4.50;;;11.20;99.90;;;;;;5027602;28;20487;-57
2023/06/14 03:52:07;;;;;;;11.40;4.50;;;11.20;99.90;;;;;;5029678;28;20490;-56
2023/06/14 03:54:34;;;;;;;16.97;4.07;;;11.30;99.90;;;;;;5026076;28;20565;-56
2023/06/14 03:57:00;;;;;;;6.20;3.60;;;11.30;99.90;;;;;;5028117;28;20487;-57
2023/06/14 03:59:28;;;;;;;4.90;4.27;;;11.40;99.90;;;;;;5031396;28;20482;-57
2023/06/14 04:01:55;;;;;;;5.50;3.30;;;11.40;99.90;;;;;;5031490;28;21107;-55
2023/06/14 04:04:28;;;;;;;10.50;3.87;;;11.50;99.90;;;;;;5030025;28;20949;-55
2023/06/14 04:06:56;;;;;;;8.17;3.67;;;11.60;99.90;;;;;;5021288;28;20475;-55
2023/06/14 04:09:24;;;;;;;6.93;4.27;;;11.70;99.90;;;;;;5031472;28;20451;-55
2023/06/14 04:11:51;;;;;;;10.53;3.77;;;11.70;99.90;;;;;;5029805;28;20802;-55
2023/06/14 04:14:17;;;;;;;12.20;3.90;;;11.80;99.90;;;;;;5028793;28;20470;-55
2023/06/14 04:16:45;;;;;;;4.40;4.00;;;11.90;99.90;;;;;;5028904;28;20533;-56
2023/06/14 04:19:12;;;;;;;4.10;3.80;;;12.00;99.90;;;;;;5028868;28;20494;-55
2023/06/14 04:21:38;;;;;;;4.37;3.50;;;12.10;99.90;;;;;;5027544;28;20568;-56
2023/06/14 04:24:06;;;;;;;4.37;3.97;;;12.10;99.90;;;;;;5025719;28;20536;-57
2023/06/14 04:26:34;;;;;;;6.90;3.53;;;12.20;99.90;;;;;;5030433;28;20478;-58
2023/06/14 04:29:01;;;;;;;6.93;4.53;;;12.30;99.90;;;;;;5029939;28;21007;-57
2023/06/14 04:31:29;;;;;;;7.67;3.87;;;12.40;99.90;;;;;;5033452;28;20463;-57
2023/06/14 04:33:57;;;;;;;4.90;3.77;;;12.50;99.90;;;;;;5034875;28;20461;-57
2023/06/14 04:36:23;;;;;;;4.03;3.83;;;12.50;99.90;;;;;;5027573;28;20517;-57
2023/06/14 04:38:53;;;;;;;4.17;3.73;;;12.60;99.90;;;;;;5027081;28;20494;-51
2023/06/14 04:41:22;;;;;;;6.17;3.80;;;12.70;99.90;;;;;;5029954;28;20572;-50
2023/06/14 04:43:49;;;;;;;4.07;3.67;;;12.80;99.90;;;;;;5027429;28;20457;-50
2023/06/14 04:46:15;;;;;;;6.33;4.50;;;12.90;99.90;;;;;;5029132;28;20486;-51
2023/06/14 04:48:42;;;;;;;4.60;4.20;;;13.00;99.90;;;;;;5026232;28;20876;-51
2023/06/14 04:51:10;;;;;;;9.60;4.30;;;13.10;99.90;;;;;;5034776;28;20493;-50
2023/06/14 04:53:37;;;;;;;8.53;4.27;;;13.20;99.90;;;;;;5033346;28;20466;-52
2023/06/14 04:56:04;;;;;;;13.13;5.00;;;13.30;99.90;;;;;;5028277;28;20481;-53
2023/06/14 04:58:31;;;;;;;7.53;4.37;;;13.40;99.90;;;;;;5033159;28;20458;-53
2023/06/14 05:00:59;;;;;;;9.00;4.17;;;13.40;99.90;;;;;;5035636;28;21019;-54
2023/06/14 05:03:26;;;;;;;6.47;3.97;;;13.40;99.90;;;;;;5033545;28;21126;-54
2023/06/14 05:05:53;;;;;;;4.40;4.10;;;13.50;99.90;;;;;;5033103;28;20504;-54
2023/06/14 05:08:22;;;;;;;6.00;3.83;;;13.50;99.90;;;;;;5021410;28;20463;-52
2023/06/14 05:10:49;;;;;;;5.00;3.83;;;13.60;99.90;;;;;;5029593;28;20455;-54
2023/06/14 05:13:16;;;;;;;13.83;4.23;;;13.70;99.90;;;;;;5031367;28;20854;-53
2023/06/14 05:15:43;;;;;;;9.20;4.20;;;13.80;99.90;;;;;;5033258;28;20493;-53
2023/06/14 05:18:09;;;;;;;5.40;4.00;;;13.80;99.90;;;;;;5021927;28;20517;-53
2023/06/14 05:20:36;;;;;;;21.53;4.10;;;14.00;99.90;;;;;;5027151;28;20539;-54
2023/06/14 05:23:03;;;;;;;10.53;3.70;;;14.10;99.90;;;;;;5031801;28;20548;-53
2023/06/14 05:25:31;;;;;;;8.13;4.23;;;14.10;99.90;;;;;;5034050;28;20973;-53
2023/06/14 05:27:57;;;;;;;5.23;3.63;;;14.20;99.90;;;;;;5025867;28;20490;-53
2023/06/14 05:30:24;;;;;;;6.33;4.23;;;14.30;99.90;;;;;;5032026;28;20454;-53
2023/06/14 05:32:52;;;;;;;5.33;4.27;;;14.30;99.90;;;;;;5023650;28;20451;-55
2023/06/14 05:35:19;;;;;;;11.93;4.30;;;14.40;99.90;;;;;;5029500;28;21052;-53
2023/06/14 05:37:45;;;;;;;6.87;3.67;;;14.50;99.90;;;;;;5031171;28;20894;-53
2023/06/14 05:40:12;;;;;;;9.40;4.60;;;14.60;99.90;;;;;;5033184;28;20933;-52
2023/06/14 05:42:40;;;;;;;6.83;4.03;;;14.60;99.90;;;;;;5032352;28;20492;-53
2023/06/14 05:45:08;;;;;;;10.30;4.57;;;14.80;99.90;;;;;;5026884;28;20487;-54
2023/06/14 05:47:34;;;;;;;10.07;4.93;;;14.80;99.90;;;;;;5033091;28;20522;-53
2023/06/14 05:50:01;;;;;;;5.70;3.97;;;14.90;99.90;;;;;;5031467;28;20493;-54
2023/06/14 05:52:28;;;;;;;4.67;4.20;;;14.90;99.90;;;;;;5032037;28;20577;-53
2023/06/14 05:54:54;;;;;;;11.83;3.90;;;14.90;99.90;;;;;;5029240;28;20495;-53
2023/06/14 05:57:21;;;;;;;8.23;4.10;;;14.90;99.90;;;;;;5029124;28;20941;-54
2023/06/14 05:59:50;;;;;;;7.07;4.40;;;15.00;99.90;;;;;;5028184;28;20559;-54
2023/06/14 06:02:16;;;;;;;5.80;4.77;;;15.10;99.90;;;;;;5025343;28;20478;-53
2023/06/14 06:04:43;;;;;;;9.43;3.60;;;15.20;99.90;;;;;;5031672;28;20502;-53
2023/06/14 06:07:09;;;;;;;5.37;4.60;;;15.20;99.90;;;;;;5029345;28;20482;-53
2023/06/14 06:09:36;;;;;;;16.20;4.63;;;15.30;99.90;;;;;;5028789;28;20471;-53
2023/06/14 06:12:03;;;;;;;8.00;4.50;;;15.30;99.90;;;;;;5026248;28;20455;-53
2023/06/14 06:14:30;;;;;;;7.80;4.30;;;15.40;99.90;;;;;;5030479;28;20487;-53
2023/06/14 06:16:57;;;;;;;6.50;4.40;;;15.40;99.90;;;;;;5030839;28;21022;-54
2023/06/14 06:19:24;;;;;;;4.97;4.10;;;15.50;99.90;;;;;;5032316;28;20487;-53
2023/06/14 06:21:51;;;;;;;7.30;4.23;;;15.50;99.90;;;;;;5026416;28;20574;-53
2023/06/14 06:24:17;;;;;;;8.17;4.53;;;15.60;99.90;;;;;;5029163;28;20483;-54
2023/06/14 06:26:44;;;;;;;5.83;4.43;;;15.70;99.90;;;;;;5027125;28;20570;-53
2023/06/14 06:29:11;;;;;;;4.47;4.07;;;15.70;99.90;;;;;;5018818;28;20573;-53
2023/06/14 06:31:38;;;;;;;5.33;4.53;;;15.70;99.90;;;;;;5024542;28;20463;-53
2023/06/14 06:34:06;;;;;;;4.87;4.47;;;15.80;99.90;;;;;;5027720;28;20491;-54
2023/06/14 06:36:32;;;;;;;5.13;4.63;;;15.80;99.90;;;;;;5025934;28;20510;-53
2023/06/14 06:38:59;;;;;;;14.23;4.20;;;15.90;99.90;;;;;;5028257;28;20515;-53
2023/06/14 06:41:26;;;;;;;7.57;4.30;;;16.00;99.90;;;;;;5024855;28;20593;-53
2023/06/14 06:43:53;;;;;;;7.33;4.07;;;16.10;99.90;;;;;;5025158;28;20471;-53
2023/06/14 06:46:19;;;;;;;6.43;3.83;;;16.20;99.90;;;;;;5024960;28;20897;-53
2023/06/14 06:48:46;;;;;;;6.93;5.00;;;16.30;99.90;;;;;;5032285;28;20447;-54
2023/06/14 06:51:15;;;;;;;10.20;4.53;;;16.40;88.70;;;;;;5032901;28;20517;-55
2023/06/14 06:53:43;;;;;;;10.13;4.37;;;16.50;24.30;;;;;;5028835;28;20502;-54
2023/06/14 06:56:10;;;;;;;9.10;5.03;;;16.50;32.90;;;;;;5029497;28;20487;-54
2023/06/14 06:58:37;;;;;;;5.40;4.40;;;16.40;34.90;;;;;;5024154;28;20475;-52
2023/06/14 07:01:04;;;;;;;11.83;5.47;;;16.40;27.90;;;;;;5025852;28;20479;-53
2023/06/14 07:03:30;;;;;;;5.57;4.70;;;16.50;20.60;;;;;;5032911;28;20467;-53
2023/06/14 07:05:57;;;;;;;9.40;4.63;;;16.60;23.40;;;;;;5033215;28;20467;-54
2023/06/14 07:08:25;;;;;;;5.23;4.10;;;16.70;23.70;;;;;;5028862;28;20462;-54
2023/06/14 07:10:52;;;;;;;11.93;5.17;;;16.80;33.60;;;;;;5026844;28;21095;-53
2023/06/14 07:13:19;;;;;;;15.33;4.83;;;16.90;41.80;;;;;;5027022;28;21002;-53
2023/06/14 07:15:45;;;;;;;8.80;4.50;;;16.90;51.20;;;;;;5023980;28;20465;-52
2023/06/14 07:18:12;;;;;;;9.93;5.17;;;16.90;56.70;;;;;;5025776;28;20529;-53
2023/06/14 07:20:40;;;;;;;10.87;4.53;;;17.00;50.00;;;;;;5023366;28;20466;-52
2023/06/14 07:23:06;;;;;;;7.60;4.23;;;17.00;54.50;;;;;;5028941;28;20469;-51
2023/06/14 07:25:34;;;;;;;11.93;4.13;;;17.10;57.00;;;;;;5025760;28;20494;-52
2023/06/14 07:28:01;;;;;;;15.67;4.23;;;17.20;43.90;;;;;;5030411;28;20565;-51
2023/06/14 07:30:29;;;;;;;5.07;4.07;;;17.40;57.80;;;;;;5030048;28;20459;-52
2023/06/14 07:32:56;;;;;;;10.40;4.43;;;17.50;66.90;;;;;;5025965;28;20818;-51
2023/06/14 07:35:23;;;;;;;5.90;3.97;;;17.70;69.10;;;;;;5028808;28;20454;-51
2023/06/14 07:37:49;;;;;;;12.83;4.30;;;17.90;71.30;;;;;;5028148;28;20487;-52
2023/06/14 07:40:16;;;;;;;7.00;5.40;;;18.00;79.60;;;;;;5025703;28;20491;-51
2023/06/14 07:42:44;;;;;;;4.90;3.83;;;18.00;84.80;;;;;;5031556;28;20937;-51
2023/06/14 07:45:12;;;;;;;14.83;3.60;;;18.00;99.90;;;;;;5031754;28;20455;-51
2023/06/14 07:47:39;;;;;;;5.43;4.20;;;18.10;99.90;;;;;;5029178;28;20576;-51
2023/06/14 07:50:06;;;;;;;4.10;3.80;;;18.00;99.90;;;;;;5029036;28;20541;-52
2023/06/14 07:52:33;;;;;;;17.33;4.13;;;18.30;99.90;;;;;;5026274;28;20465;-52
2023/06/14 07:55:01;;;;;;;4.00;3.70;;;18.40;99.90;;;;;;5032221;28;21038;-53
2023/06/14 07:57:28;;;;;;;4.23;3.60;;;18.50;99.90;;;;;;5027736;28;20995;-52
2023/06/14 07:59:56;;;;;;;4.60;3.80;;;18.60;99.90;;;;;;5029355;28;21151;-51
2023/06/14 08:02:22;;;;;;;4.03;3.57;;;18.30;99.90;;;;;;5030977;28;20570;-52
2023/06/14 08:04:49;;;;;;;10.83;3.67;;;18.50;99.90;;;;;;5033234;28;20497;-52
2023/06/14 08:07:15;;;;;;;12.13;4.80;;;18.50;99.90;;;;;;5029579;28;20912;-51
2023/06/14 08:09:42;;;;;;;5.80;4.40;;;18.60;99.90;;;;;;5032570;28;20552;-52
2023/06/14 08:12:10;;;;;;;5.87;3.87;;;18.70;99.90;;;;;;5034070;28;20468;-52
2023/06/14 08:14:37;;;;;;;12.43;4.00;;;18.80;42.30;;;;;;5033267;28;20466;-53
2023/06/14 08:17:05;;;;;;;14.73;4.30;;;19.00;46.80;;;;;;5030301;28;20531;-53
2023/06/14 08:19:32;;;;;;;18.60;3.97;;;19.10;54.80;;;;;;5032554;28;20516;-52
2023/06/14 08:21:58;;;;;;;10.20;4.23;;;19.20;54.10;;;;;;5030323;28;20935;-52
2023/06/14 08:24:26;;;;;;;8.40;4.20;;;19.40;72.80;;;;;;5034128;28;20517;-51
2023/06/14 08:26:53;;;;;;;9.13;3.90;;;19.20;90.80;;;;;;5033963;28;20482;-52
2023/06/14 08:29:20;;;;;;;3.63;3.33;;;19.40;99.50;;;;;;5032557;28;20538;-51
2023/06/14 08:31:47;;;;;;;5.87;4.00;;;19.40;99.90;;;;;;5033547;28;20629;-52
2023/06/14 08:34:15;;;;;;;7.67;3.90;;;19.50;99.90;;;;;;5033111;28;20491;-52
2023/06/14 08:36:42;;;;;;;11.43;4.63;;;19.70;99.90;;;;;;5034359;28;20493;-53
2023/06/14 08:39:09;;;;;;;5.90;4.47;;;19.80;99.90;;;;;;5030414;28;20817;-52
2023/06/14 08:41:36;;;;;;;5.00;3.73;;;19.90;99.90;;;;;;5030193;28;21003;-52
2023/06/14 08:44:03;;;;;;;13.37;3.90;;;20.00;99.90;;;;;;5029263;28;20968;-52
2023/06/14 08:46:34;;;;;;;8.27;4.70;;;20.10;99.90;;;;;;5028479;28;20528;-52
2023/06/14 08:49:03;;;;;;;10.23;5.10;;;19.90;99.90;;;;;;5023500;28;20459;-52
2023/06/14 08:51:34;;;;;;;8.33;4.43;;;19.50;99.90;;;;;;5031720;28;20517;-52
2023/06/14 08:54:01;;;;;;;21.33;4.70;;;19.60;99.90;;;;;;5031839;28;20497;-53
2023/06/14 08:56:29;;;;;;;5.97;4.27;;;19.60;99.90;;;;;;5031709;28;20482;-52
2023/06/14 08:58:56;;;;;;;4.47;3.43;;;19.70;99.90;;;;;;5030731;28;20473;-51
2023/06/14 09:01:24;;;;;;;5.53;3.80;;;19.80;99.90;;;;;;5030121;28;20470;-52
2023/06/14 09:03:51;;;;;;;7.73;4.30;;;19.80;99.90;;;;;;5031665;28;20466;-51
2023/06/14 09:06:19;;;;;;;12.63;7.13;;;19.70;99.90;;;;;;5031112;28;21053;-51
2023/06/14 09:08:48;;;;;;;10.40;4.27;;;19.80;99.90;;;;;;5031819;28;20454;-51
2023/06/14 09:11:16;;;;;;;4.40;4.00;;;19.70;99.90;;;;;;5029407;28;20940;-51
2023/06/14 09:13:43;;;;;;;11.87;7.57;;;19.70;99.90;;;;;;5032796;28;20937;-51
2023/06/14 09:16:09;;;;;;;44.53;25.07;;;19.70;99.90;;;;;;5034388;28;20463;-51
2023/06/14 09:18:37;;;;;;;18.93;5.53;;;19.80;99.90;;;;;;5024899;28;20529;-51
2023/06/14 09:21:04;;;;;;;42.77;22.97;;;19.80;99.90;;;;;;5029850;28;21015;-52
2023/06/14 09:23:34;;;;;;;8.97;5.27;;;19.80;99.90;;;;;;5030246;28;20518;-52
2023/06/14 09:26:01;;;;;;;36.13;16.97;;;19.90;99.90;;;;;;5032932;28;20510;-52
2023/06/14 09:28:28;;;;;;;7.10;4.93;;;20.00;99.90;;;;;;5025770;28;20459;-51
2023/06/14 09:30:55;;;;;;;5.50;4.90;;;20.10;99.90;;;;;;5028235;28;20505;-53
2023/06/14 09:33:22;;;;;;;7.17;5.10;;;20.20;99.90;;;;;;5027504;28;20462;-52
2023/06/14 09:35:52;;;;;;;6.97;4.80;;;20.30;99.90;;;;;;5031597;28;20466;-51
2023/06/14 09:38:19;;;;;;;8.90;3.97;;;20.40;99.90;;;;;;5032836;28;20462;-52
2023/06/14 09:40:46;;;;;;;8.40;5.03;;;20.50;99.90;;;;;;5033799;28;21170;-55
2023/06/14 09:43:14;;;;;;;10.13;5.23;;;20.90;99.90;;;;;;5037821;28;20514;-52
2023/06/14 09:45:41;;;;;;;17.23;4.47;;;21.10;99.90;;;;;;5031437;28;20506;-52
2023/06/14 09:48:08;;;;;;;8.40;4.40;;;21.30;99.90;;;;;;5037688;28;20466;-52
2023/06/14 09:50:34;;;;;;;10.90;5.20;;;21.30;99.90;;;;;;5033116;28;20505;-52
2023/06/14 09:53:05;;;;;;;33.07;14.80;;;21.40;99.90;;;;;;5033654;28;20963;-52
2023/06/14 09:55:33;;;;;;;10.30;5.70;;;21.40;99.90;;;;;;5031839;28;20508;-52
2023/06/14 09:58:04;;;;;;;14.73;5.70;;;21.00;99.90;;;;;;5032911;28;20513;-52
2023/06/14 10:00:33;;;;;;;6.90;4.60;;;21.00;99.90;;;;;;5031149;28;20953;-52
2023/06/14 10:03:07;;;;;;;27.07;4.90;;;20.90;99.90;;;;;;5029422;28;20475;-51
2023/06/14 10:05:37;;;;;;;19.07;5.23;;;21.00;99.90;;;;;;5027945;28;20841;-52
2023/06/14 10:08:09;;;;;;;5.73;4.60;;;21.00;99.90;;;;;;5032529;28;20546;-52
2023/06/14 10:10:35;;;;;;;8.40;5.63;;;20.90;99.90;;;;;;5031626;28;20825;-52
2023/06/14 10:13:02;;;;;;;14.17;5.93;;;20.80;99.90;;;;;;5038639;28;20472;-53
2023/06/14 10:15:39;;;;;;;12.70;4.40;;;20.80;99.90;;;;;;5034571;28;20976;-53
2023/06/14 10:18:14;;;;;;;8.60;4.20;;;20.50;99.90;;;;;;5028760;28;20490;-51
2023/06/14 10:20:49;;;;;;;4.87;4.07;;;20.50;99.90;;;;;;5028967;28;20526;-51
2023/06/14 10:23:20;;;;;;;14.73;4.70;;;20.50;99.90;;;;;;5029625;28;20509;-51
2023/06/14 10:25:51;;;;;;;9.60;4.53;;;20.70;99.90;;;;;;5028309;28;20497;-51
2023/06/14 10:28:18;;;;;;;11.13;4.40;;;20.70;99.90;;;;;;5026573;28;20465;-51
2023/06/14 10:31:08;;;;;;;14.10;5.43;;;20.80;99.90;;;;;;5024851;28;21139;-52
2023/06/14 10:33:36;;;;;;;9.50;5.40;;;20.90;99.90;;;;;;5027957;28;20469;-52
2023/06/14 10:36:10;;;;;;;13.07;3.30;;;20.90;99.90;;;;;;5028304;28;20511;-53
2023/06/14 10:38:37;;;;;;;4.30;3.73;;;21.00;99.90;;;;;;5029800;28;20467;-51
2023/06/14 10:41:05;;;;;;;8.03;3.50;;;21.10;99.90;;;;;;5031336;28;20528;-53
2023/06/14 10:43:32;;;;;;;16.30;4.30;;;21.10;99.90;;;;;;5030288;28;20487;-53
2023/06/14 10:46:22;;;;;;;7.47;4.27;;;21.10;99.90;;;;;;5027001;28;20463;-52
2023/06/14 10:48:49;;;;;;;22.77;4.10;;;21.50;99.90;;;;;;5028733;28;20459;-52
2023/06/14 10:51:20;;;;;;;7.33;3.87;;;21.30;99.90;;;;;;5021968;28;20459;-52
2023/06/14 10:53:47;;;;;;;8.93;3.97;;;21.40;99.90;;;;;;5030522;28;20458;-52
2023/06/14 10:56:26;;;;;;;20.83;4.90;;;21.30;99.90;;;;;;5030488;28;20851;-52
2023/06/14 10:58:52;;;;;;;11.23;5.40;;;21.60;99.90;;;;;;5026366;28;20467;-52
2023/06/14 11:01:32;;;;;;;22.43;7.43;;;21.90;99.90;;;;;;5024269;28;21499;-53
2023/06/14 11:04:08;;;;;;;5.60;3.57;;;22.30;99.90;;;;;;5027478;28;20485;-52
2023/06/14 11:06:47;;;;;;;7.83;4.20;;;22.00;99.90;;;;;;5028782;28;20826;-52
2023/06/14 11:09:48;;;;;;;5.23;3.93;;;22.30;99.90;;;;;;5026210;28;20451;-52
2023/06/14 11:12:16;;;;;;;9.27;4.50;;;23.40;99.90;;;;;;5028196;28;20578;-52
2023/06/14 11:14:43;;;;;;;8.70;4.07;;;23.50;99.90;;;;;;5030778;28;20490;-53
2023/06/14 11:17:13;;;;;;;10.30;3.80;;;23.70;99.90;;;;;;5023699;28;20518;-52
2023/06/14 11:19:39;;;;;;;6.77;3.50;;;23.80;99.90;;;;;;5026358;28;20495;-52
2023/06/14 11:22:06;;;;;;;10.70;4.20;;;23.60;99.90;;;;;;5027565;28;20487;-52
2023/06/14 11:24:33;;;;;;;10.47;4.30;;;23.90;99.90;;;;;;5029894;28;20529;-51
2023/06/14 11:27:00;;;;;;;6.10;3.83;;;23.50;99.90;;;;;;5022457;28;20486;-51
2023/06/14 11:29:26;;;;;;;9.87;4.50;;;23.90;99.90;;;;;;5027987;28;21896;-52
2023/06/14 11:31:53;;;;;;;6.00;3.67;;;23.90;99.90;;;;;;5025028;28;21039;-54
2023/06/14 11:34:21;;;;;;;12.97;3.43;;;24.40;99.90;;;;;;5028665;28;20568;-51
2023/06/14 11:36:48;;;;;;;8.10;2.97;;;24.80;99.90;;;;;;5031137;28;20506;-51
2023/06/14 11:39:15;;;;;;;12.90;3.80;;;24.90;99.90;;;;;;5024981;28;20897;-51
2023/06/14 11:41:43;;;;;;;5.40;3.17;;;24.10;99.90;;;;;;5025966;28;21006;-51
2023/06/14 11:44:11;;;;;;;10.83;4.17;;;24.50;99.90;;;;;;5024300;28;20493;-53
2023/06/14 11:46:38;;;;;;;19.47;3.37;;;24.70;99.90;;;;;;5030022;28;20529;-53
2023/06/14 11:49:06;;;;;;;8.57;4.40;;;25.00;99.90;;;;;;5030747;28;20490;-51
2023/06/14 11:51:35;;;;;;;17.53;4.17;;;25.00;99.90;;;;;;5036862;28;20501;-51
2023/06/14 11:54:03;;;;;;;23.87;4.23;;;25.20;99.90;;;;;;5032283;28;20582;-51
2023/06/14 11:56:30;;;;;;;4.90;3.00;;;25.10;99.90;;;;;;5030248;28;20510;-52
2023/06/14 11:58:57;;;;;;;9.40;3.43;;;25.30;94.60;;;;;;5035369;28;20498;-51
2023/06/14 12:01:25;;;;;;;11.00;2.90;;;25.00;99.90;;;;;;5032777;28;20459;-53
2023/06/14 12:03:54;;;;;;;7.23;3.50;;;25.20;99.90;;;;;;5034126;28;20891;-51
2023/06/14 12:06:28;;;;;;;10.10;3.50;;;24.90;99.90;;;;;;5032133;28;20479;-51
2023/06/14 12:08:58;;;;;;;6.90;2.90;;;24.50;98.00;;;;;;5029716;28;20467;-51
2023/06/14 12:11:24;;;;;;;6.87;3.50;;;24.70;92.70;;;;;;5032166;28;20993;-52
2023/06/14 12:13:51;;;;;;;8.70;4.13;;;24.90;99.90;;;;;;5032248;28;20455;-51
2023/06/14 12:16:18;;;;;;;10.57;3.97;;;25.20;98.50;;;;;;5033105;28;20470;-51
2023/06/14 12:18:45;;;;;;;5.20;3.37;;;25.50;99.90;;;;;;5031631;28;20459;-51
2023/06/14 12:21:12;;;;;;;4.80;3.27;;;25.50;95.00;;;;;;5029375;28;20528;-51
2023/06/14 12:23:46;;;;;;;9.20;3.30;;;25.70;84.50;;;;;;5026246;28;21225;-53
2023/06/14 12:26:19;;;;;;;9.37;4.20;;;25.40;87.20;;;;;;5030603;28;20506;-52
2023/06/14 12:28:47;;;;;;;6.33;3.73;;;25.70;89.00;;;;;;5033042;28;21002;-54
2023/06/14 12:31:15;;;;;;;6.70;3.23;;;25.40;71.80;;;;;;5031443;28;20984;-51
2023/06/14 12:33:43;;;;;;;8.50;3.10;;;24.80;84.30;;;;;;5028153;28;20463;-58
2023/06/14 12:36:10;;;;;;;14.23;3.50;;;25.10;83.70;;;;;;5031612;28;20483;-51
2023/06/14 12:38:37;;;;;;;7.63;3.30;;;25.00;85.10;;;;;;5027968;28;20459;-51
2023/06/14 12:41:04;;;;;;;9.07;3.77;;;24.90;91.00;;;;;;5028628;28;20956;-53
2023/06/14 12:43:32;;;;;;;11.67;3.33;;;24.70;84.10;;;;;;5028681;28;20495;-51
2023/06/14 12:45:59;;;;;;;10.77;3.13;;;24.70;86.30;;;;;;5030516;28;20529;-52